createdAt,value
2019-01-18T00:00:45.300Z,79.67
2019-01-18T00:03:17.369Z,79.35
2019-01-18T00:05:49.397Z,78.85
2019-01-18T00:08:21.431Z,78.29
2019-01-18T00:10:53.356Z,78.19
2019-01-18T00:13:25.402Z,78.43
2019-01-18T00:15:57.363Z,77.89
2019-01-18T00:18:29.791Z,77.92
2019-01-18T00:21:01.857Z,77.90
2019-01-18T00:23:33.921Z,77.82
2019-01-18T00:26:05.945Z,78.04
2019-01-18T00:28:37.890Z,76.66
2019-01-18T00:31:09.827Z,76.08
2019-01-18T00:33:41.801Z,76.12
2019-01-18T00:36:13.732Z,75.98
2019-01-18T00:38:45.759Z,75.65
2019-01-18T00:41:17.780Z,76.25
2019-01-18T00:43:49.753Z,76.81
2019-01-18T00:46:21.692Z,77.31
2019-01-18T00:48:53.663Z,77.57
2019-01-18T00:51:25.619Z,77.40
2019-01-18T00:53:57.620Z,77.22
2019-01-18T00:56:29.570Z,76.70
2019-01-18T00:59:03.156Z,76.02
2019-01-18T01:01:35.085Z,76.16
2019-01-18T01:04:07.054Z,75.74
2019-01-18T01:06:39.135Z,75.30
2019-01-18T01:09:11.139Z,75.52
2019-01-18T01:11:43.098Z,75.57
2019-01-18T01:14:15.137Z,75.52
2019-01-18T01:16:47.061Z,76.44
2019-01-18T01:19:19.016Z,77.53
2019-01-18T01:21:50.974Z,77.67
2019-01-18T01:24:23.007Z,77.49
2019-01-18T01:26:55.105Z,77.46
2019-01-18T01:29:27.095Z,77.32
2019-01-18T01:31:59.104Z,76.50
2019-01-18T01:34:31.090Z,76.40
2019-01-18T01:37:03.035Z,76.97
2019-01-18T01:39:34.993Z,77.77
2019-01-18T01:42:07.039Z,78.35
2019-01-18T01:44:39.083Z,78.74
2019-01-18T01:47:11.042Z,78.86
2019-01-18T01:49:42.978Z,78.74
2019-01-18T01:52:15.182Z,78.94
2019-01-18T01:54:50.761Z,78.72
2019-01-18T01:57:22.688Z,78.07
2019-01-18T01:59:54.669Z,77.02
2019-01-18T02:02:26.604Z,74.99
2019-01-18T02:04:58.573Z,72.79
2019-01-18T02:07:30.526Z,71.63
2019-01-18T02:10:02.658Z,70.73
2019-01-18T02:12:35.258Z,70.47
2019-01-18T02:15:09.012Z,70.10
2019-01-18T02:17:40.992Z,70.84
2019-01-18T02:20:15.059Z,69.43
2019-01-18T02:22:47.067Z,69.94
2019-01-18T02:25:19.092Z,70.48
2019-01-18T02:27:51.171Z,70.04
2019-01-18T02:30:25.714Z,71.10
2019-01-18T02:32:57.717Z,71.12
2019-01-18T02:35:29.659Z,71.50
2019-01-18T02:38:01.617Z,71.69
2019-01-18T02:40:33.595Z,71.47
2019-01-18T02:43:05.522Z,71.71
2019-01-18T02:45:37.489Z,71.51
2019-01-18T02:48:09.492Z,72.38
2019-01-18T02:50:41.469Z,74.54
2019-01-18T02:53:13.537Z,75.30
2019-01-18T02:55:45.510Z,75.27
2019-01-18T02:58:17.548Z,75.45
2019-01-18T03:00:49.546Z,74.75
2019-01-18T03:03:21.495Z,74.15
2019-01-18T03:05:53.491Z,74.28
2019-01-18T03:08:26.487Z,74.46
2019-01-18T03:10:58.446Z,74.28
2019-01-18T03:13:30.439Z,74.11
2019-01-18T03:16:02.397Z,74.77
2019-01-18T03:18:34.326Z,75.19
2019-01-18T03:21:06.391Z,75.48
2019-01-18T03:23:39.481Z,75.87
2019-01-18T03:26:11.548Z,76.24
2019-01-18T03:28:43.555Z,76.12
2019-01-18T03:31:16.618Z,76.59
2019-01-18T03:33:48.590Z,76.62
2019-01-18T03:36:20.569Z,76.53
2019-01-18T03:38:52.554Z,76.93
2019-01-18T03:41:24.618Z,76.95
2019-01-18T03:43:56.618Z,77.50
2019-01-18T03:46:28.593Z,77.83
2019-01-18T03:49:00.521Z,77.85
2019-01-18T03:51:32.487Z,77.44
2019-01-18T03:54:04.457Z,77.55
2019-01-18T03:56:36.433Z,77.52
2019-01-18T03:59:08.367Z,77.57
2019-01-18T04:01:40.355Z,77.61
2019-01-18T04:04:12.306Z,77.77
2019-01-18T04:06:44.266Z,78.02
2019-01-18T04:09:16.194Z,78.32
2019-01-18T04:11:48.150Z,78.54
2019-01-18T04:14:20.101Z,78.90
2019-01-18T04:16:52.077Z,79.76
2019-01-18T04:19:24.038Z,80.98
2019-01-18T04:21:55.998Z,83.02
2019-01-18T04:24:28.405Z,84.21
2019-01-18T04:27:00.432Z,84.97
2019-01-18T04:29:32.386Z,85.24
2019-01-18T04:32:04.381Z,85.54
2019-01-18T04:34:36.318Z,85.63
2019-01-18T04:37:08.282Z,85.39
2019-01-18T04:39:40.265Z,85.40
2019-01-18T04:42:12.406Z,85.50
2019-01-18T04:44:44.460Z,85.50
2019-01-18T04:47:16.425Z,85.47
2019-01-18T04:49:48.371Z,85.47
2019-01-18T04:52:20.347Z,85.40
2019-01-18T04:54:52.307Z,85.46
2019-01-18T04:57:24.415Z,85.51
2019-01-18T04:59:56.358Z,85.47
2019-01-18T05:02:28.471Z,85.50
2019-01-18T05:05:00.537Z,85.58
2019-01-18T05:07:33.047Z,85.65
2019-01-18T05:10:09.740Z,85.79
2019-01-18T05:12:41.687Z,85.99
2019-01-18T05:15:16.224Z,86.09
2019-01-18T05:17:48.338Z,86.22
2019-01-18T05:20:21.424Z,86.28
2019-01-18T05:22:53.363Z,86.29
2019-01-18T05:25:25.439Z,86.91
2019-01-18T05:27:57.492Z,86.86
2019-01-18T05:30:30.435Z,86.33
2019-01-18T05:33:02.500Z,86.26
2019-01-18T05:35:34.449Z,86.41
2019-01-18T05:38:06.499Z,87.08
2019-01-18T05:40:38.763Z,86.02
2019-01-18T05:43:10.845Z,85.52
2019-01-18T05:45:42.885Z,84.66
2019-01-18T05:48:14.834Z,84.06
2019-01-18T05:50:46.772Z,84.17
2019-01-18T05:53:19.013Z,83.81
2019-01-18T05:55:51.026Z,83.80
2019-01-18T05:58:22.967Z,84.09
2019-01-18T06:01:05.997Z,84.43
2019-01-18T06:03:37.973Z,84.12
2019-01-18T06:06:10.667Z,83.71
2019-01-18T06:08:42.644Z,83.59
2019-01-18T06:11:14.702Z,83.60
2019-01-18T06:13:46.736Z,83.95
2019-01-18T06:16:18.723Z,84.39
2019-01-18T06:18:50.665Z,84.11
2019-01-18T06:21:22.673Z,84.05
2019-01-18T06:23:54.665Z,84.27
2019-01-18T06:26:26.757Z,84.53
2019-01-18T06:28:58.932Z,84.81
2019-01-18T06:31:30.911Z,85.15
2019-01-18T06:34:02.876Z,85.20
2019-01-18T06:36:34.857Z,85.48
2019-01-18T06:39:08.220Z,85.61
2019-01-18T06:41:46.403Z,85.59
2019-01-18T06:44:18.367Z,85.67
2019-01-18T06:46:50.417Z,85.37
2019-01-18T06:49:22.359Z,85.76
2019-01-18T06:51:54.356Z,86.01
2019-01-18T06:54:26.368Z,85.95
2019-01-18T06:56:58.413Z,85.95
2019-01-18T06:59:30.401Z,86.10
2019-01-18T07:02:02.451Z,85.88
2019-01-18T07:04:40.781Z,85.72
2019-01-18T07:07:08.806Z,85.32
2019-01-18T07:09:40.818Z,85.43
2019-01-18T07:12:12.784Z,84.97
2019-01-18T07:14:44.753Z,84.81
2019-01-18T07:17:16.731Z,84.52
2019-01-18T07:19:48.769Z,84.56
2019-01-18T07:22:20.812Z,84.57
2019-01-18T07:24:52.771Z,84.27
2019-01-18T07:27:24.798Z,84.10
2019-01-18T07:29:56.785Z,84.16
2019-01-18T07:32:29.033Z,84.30
2019-01-18T07:35:01.157Z,84.52
2019-01-18T07:37:33.278Z,85.27
2019-01-18T07:40:06.306Z,85.74
2019-01-18T07:42:38.364Z,84.35
2019-01-18T07:45:14.702Z,83.61
2019-01-18T07:47:46.666Z,82.99
2019-01-18T07:50:20.143Z,82.91
2019-01-18T07:52:52.636Z,83.25
2019-01-18T07:55:24.595Z,83.86
2019-01-18T07:57:56.578Z,83.98
2019-01-18T08:00:29.853Z,83.96
2019-01-18T08:03:01.835Z,84.01
2019-01-18T08:05:33.895Z,83.84
2019-01-18T08:08:05.888Z,83.87
2019-01-18T08:10:37.900Z,84.06
2019-01-18T08:13:09.899Z,84.07
2019-01-18T08:15:41.919Z,84.01
2019-01-18T08:18:13.952Z,84.00
2019-01-18T08:20:45.915Z,83.98
2019-01-18T08:23:17.871Z,84.35
2019-01-18T08:25:49.815Z,84.42
2019-01-18T08:28:22.077Z,84.49
2019-01-18T08:30:54.040Z,84.57
2019-01-18T08:33:26.050Z,84.69
2019-01-18T08:35:58.000Z,84.30
2019-01-18T08:38:29.975Z,84.29
2019-01-18T08:41:01.957Z,83.96
2019-01-18T08:43:33.934Z,83.00
2019-01-18T08:46:08.455Z,82.67
2019-01-18T08:48:40.449Z,82.38
2019-01-18T09:14:28.185Z,28.86
2019-01-18T09:17:00.260Z,47.42
2019-01-18T09:19:32.254Z,58.45
2019-01-18T09:22:04.371Z,64.71
2019-01-18T09:24:36.381Z,69.86
2019-01-18T09:27:08.326Z,73.61
2019-01-18T09:29:40.321Z,75.02
2019-01-18T09:32:12.582Z,76.13
2019-01-18T09:34:44.527Z,77.17
2019-01-18T09:37:16.546Z,77.58
2019-01-18T09:39:48.530Z,77.45
2019-01-18T09:42:20.560Z,77.73
2019-01-18T09:44:52.560Z,77.55
2019-01-18T09:47:24.531Z,77.27
2019-01-18T09:49:56.486Z,77.34
2019-01-18T09:52:28.445Z,77.65
2019-01-18T09:55:00.396Z,77.44
2019-01-18T09:57:32.563Z,77.84
2019-01-18T10:00:06.342Z,78.05
2019-01-18T10:02:38.402Z,78.68
2019-01-18T10:05:11.129Z,78.36
2019-01-18T10:07:44.198Z,77.76
2019-01-18T10:10:17.710Z,77.52
2019-01-18T10:12:49.902Z,76.96
2019-01-18T10:15:27.681Z,76.76
2019-01-18T10:18:00.738Z,76.21
2019-01-18T10:20:33.062Z,76.62
2019-01-18T10:23:05.034Z,76.80
2019-01-18T10:25:37.075Z,76.21
2019-01-18T10:28:09.250Z,76.52
2019-01-18T10:30:41.232Z,76.75
2019-01-18T10:33:13.204Z,76.51
2019-01-18T10:35:45.264Z,76.12
2019-01-18T10:38:17.226Z,75.75
2019-01-18T10:40:49.236Z,75.53
2019-01-18T10:43:21.239Z,75.68
2019-01-18T10:45:53.220Z,74.97
2019-01-18T10:48:25.166Z,74.27
2019-01-18T10:50:57.126Z,73.85
2019-01-18T10:53:29.096Z,71.81
2019-01-18T10:56:01.050Z,67.05
2019-01-18T10:58:33.050Z,65.66
2019-01-18T11:01:05.027Z,59.09
2019-01-18T11:03:36.988Z,54.46
2019-01-18T11:06:08.959Z,53.81
2019-01-18T11:08:40.937Z,55.57
2019-01-18T11:11:12.959Z,58.31
2019-01-18T11:13:44.965Z,61.20
2019-01-18T11:16:16.943Z,63.00
2019-01-18T11:18:48.880Z,64.94
2019-01-18T11:21:22.664Z,65.17
2019-01-18T11:23:54.595Z,63.53
2019-01-18T11:26:26.588Z,63.98
2019-01-18T11:29:00.154Z,64.88
2019-01-18T11:31:32.115Z,64.07
2019-01-18T11:34:04.273Z,63.68
2019-01-18T11:36:36.249Z,65.04
2019-01-18T11:39:08.662Z,65.20
2019-01-18T11:41:40.918Z,65.44
2019-01-18T11:44:12.931Z,64.75
2019-01-18T11:46:44.906Z,65.54
2019-01-18T11:49:16.868Z,64.66
2019-01-18T11:51:48.902Z,64.60
2019-01-18T11:54:20.891Z,63.53
2019-01-18T11:56:52.863Z,64.52
2019-01-18T11:59:24.821Z,65.97
2019-01-18T12:01:56.790Z,65.94
2019-01-18T12:04:28.774Z,65.37
2019-01-18T12:07:00.876Z,66.37
2019-01-18T12:09:32.917Z,60.51
2019-01-18T12:12:04.945Z,57.46
2019-01-18T12:14:36.838Z,54.35
2019-01-18T12:17:08.878Z,53.44
2019-01-18T12:19:40.827Z,56.09
2019-01-18T12:22:12.839Z,54.73
2019-01-18T12:24:44.789Z,55.95
2019-01-18T12:27:16.809Z,54.83
2019-01-18T12:29:48.766Z,52.93
2019-01-18T12:32:20.740Z,52.13
2019-01-18T12:34:52.704Z,53.68
2019-01-18T12:37:24.779Z,54.75
2019-01-18T12:39:56.759Z,54.06
2019-01-18T12:42:28.846Z,52.86
2019-01-18T12:45:01.277Z,51.90
2019-01-18T12:47:33.520Z,51.24
2019-01-18T12:50:07.513Z,54.84
2019-01-18T12:52:39.525Z,55.89
2019-01-18T12:55:11.477Z,55.89
2019-01-18T12:57:43.469Z,57.73
2019-01-18T13:00:17.219Z,57.72
2019-01-18T13:02:49.209Z,58.44
2019-01-18T13:05:30.263Z,57.54
2019-01-18T13:08:02.260Z,57.84
2019-01-18T13:10:34.330Z,58.70
2019-01-18T13:13:06.386Z,60.78
2019-01-18T13:15:59.197Z,60.88
2019-01-18T13:18:31.747Z,62.16
2019-01-18T13:21:03.769Z,63.82
2019-01-18T13:23:35.782Z,61.58
2019-01-18T13:26:07.798Z,56.94
2019-01-18T13:28:39.777Z,56.21
2019-01-18T13:31:11.749Z,57.52
2019-01-18T13:33:43.749Z,59.82
2019-01-18T13:36:16.186Z,60.63
2019-01-18T13:38:48.171Z,61.83
2019-01-18T13:41:20.217Z,62.39
2019-01-18T13:43:52.225Z,63.55
2019-01-18T13:46:24.191Z,64.31
2019-01-18T13:48:56.145Z,64.39
2019-01-18T13:51:28.086Z,63.55
2019-01-18T13:54:00.050Z,65.26
2019-01-18T13:56:32.052Z,65.56
2019-01-18T13:59:04.032Z,65.60
2019-01-18T14:01:36.000Z,66.02
2019-01-18T14:04:08.011Z,66.69
2019-01-18T14:06:40.152Z,67.16
2019-01-18T14:09:12.209Z,67.33
2019-01-18T14:11:44.164Z,67.80
2019-01-18T14:14:18.609Z,67.03
2019-01-18T14:16:50.585Z,67.44
2019-01-18T14:19:22.571Z,66.66
2019-01-18T14:21:54.525Z,67.60
2019-01-18T14:24:26.502Z,67.19
2019-01-18T14:26:58.462Z,68.40
2019-01-18T14:29:30.447Z,70.13
2019-01-18T14:32:02.427Z,69.42
2019-01-18T14:34:34.411Z,69.27
2019-01-18T14:37:06.405Z,69.15
2019-01-18T14:39:39.556Z,68.54
2019-01-18T14:42:11.513Z,68.85
2019-01-18T14:44:43.487Z,68.76
2019-01-18T14:47:15.444Z,68.90
2019-01-18T14:49:47.584Z,68.49
2019-01-18T14:52:19.947Z,68.98
2019-01-18T14:54:51.922Z,69.51
2019-01-18T14:57:23.935Z,70.06
2019-01-18T14:59:55.969Z,70.37
2019-01-18T15:02:28.024Z,70.66
2019-01-18T15:05:00.049Z,71.17
2019-01-18T15:07:32.064Z,70.95
2019-01-18T15:10:05.855Z,71.12
2019-01-18T15:12:37.810Z,71.48
2019-01-18T15:15:11.878Z,71.44
2019-01-18T15:17:44.048Z,71.98
2019-01-18T15:20:21.454Z,72.04
2019-01-18T15:22:53.478Z,72.11
2019-01-18T15:25:25.553Z,72.35
2019-01-18T15:27:57.593Z,72.98
2019-01-18T15:30:30.723Z,73.70
2019-01-18T15:33:08.807Z,74.15
2019-01-18T15:35:40.017Z,74.64
2019-01-18T15:38:12.862Z,75.00
2019-01-18T15:40:47.655Z,75.39
2019-01-18T15:43:21.917Z,75.54
2019-01-18T15:45:54.984Z,75.82
2019-01-18T15:48:26.941Z,76.02
2019-01-18T15:50:59.002Z,75.75
2019-01-18T15:53:31.033Z,75.71
2019-01-18T15:56:03.139Z,75.93
2019-01-18T15:58:35.552Z,75.87
2019-01-18T16:01:09.061Z,76.16
2019-01-18T16:03:41.241Z,76.33
2019-01-18T16:06:13.380Z,76.12
2019-01-18T16:08:45.508Z,76.30
2019-01-18T16:11:27.591Z,76.32
2019-01-18T16:13:59.772Z,76.41
2019-01-18T16:16:39.739Z,76.43
2019-01-18T16:19:11.907Z,76.39
2019-01-18T16:21:43.975Z,76.09
2019-01-18T16:24:16.024Z,75.97
2019-01-18T16:26:48.045Z,75.97
2019-01-18T16:29:20.041Z,75.91
2019-01-18T16:31:52.465Z,75.81
2019-01-18T16:34:24.595Z,75.61
2019-01-18T16:36:56.588Z,75.81
2019-01-18T16:39:28.833Z,75.62
2019-01-18T16:42:00.957Z,75.59
2019-01-18T16:44:32.978Z,75.57
2019-01-18T16:47:05.412Z,75.26
2019-01-18T16:49:37.420Z,75.37
2019-01-18T16:52:09.475Z,75.36
2019-01-18T16:54:41.497Z,75.60
2019-01-18T16:57:13.528Z,75.76
2019-01-18T16:59:45.479Z,76.34
2019-01-18T17:02:17.480Z,76.52
2019-01-18T17:04:49.533Z,76.58
2019-01-18T17:07:21.603Z,76.56
2019-01-18T17:09:53.562Z,76.69
2019-01-18T17:12:25.590Z,76.63
2019-01-18T17:14:57.605Z,76.64
2019-01-18T17:17:29.666Z,76.77
2019-01-18T17:20:01.634Z,76.77
2019-01-18T17:22:33.810Z,76.94
2019-01-18T17:25:06.439Z,77.28
2019-01-18T17:27:38.528Z,77.50
2019-01-18T17:30:13.589Z,77.48
2019-01-18T17:32:45.575Z,77.39
2019-01-18T17:35:24.147Z,77.48
2019-01-18T17:38:13.159Z,77.66
2019-01-18T17:40:55.408Z,77.58
2019-01-18T17:44:10.329Z,77.68
2019-01-18T17:47:17.860Z,77.90
2019-01-18T17:50:31.070Z,78.45
2019-01-18T17:53:56.581Z,78.90
2019-01-18T17:57:15.186Z,78.72
2019-01-18T18:00:40.546Z,78.36
2019-01-18T18:03:43.609Z,78.32
2019-01-18T18:06:45.457Z,78.84
2019-01-18T18:09:26.880Z,79.12
2019-01-18T18:12:37.595Z,79.27
2019-01-18T18:16:02.764Z,79.16
2019-01-18T18:19:03.664Z,79.17
2019-01-18T18:22:24.430Z,79.09
2019-01-18T18:25:28.366Z,79.14
2019-01-18T18:28:20.342Z,79.25
2019-01-18T18:31:24.511Z,78.96
2019-01-18T18:34:46.732Z,78.72
2019-01-18T18:37:51.192Z,78.54
2019-01-18T18:41:10.439Z,78.31
2019-01-18T18:44:04.646Z,77.85
2019-01-18T18:47:17.956Z,77.72
2019-01-18T18:50:26.601Z,77.71
2019-01-18T18:53:44.381Z,77.40
2019-01-18T18:57:16.274Z,76.58
2019-01-18T19:00:05.447Z,76.29
2019-01-18T19:03:24.688Z,75.74
2019-01-18T19:06:27.033Z,75.97
2019-01-18T19:09:22.040Z,75.92
2019-01-18T19:12:46.971Z,75.90
2019-01-18T19:15:50.270Z,75.34
2019-01-18T19:18:48.987Z,74.72
2019-01-18T19:22:01.413Z,74.90
2019-01-18T19:25:29.339Z,74.29
2019-01-18T19:28:40.651Z,74.19
2019-01-18T19:31:47.681Z,74.38
2019-01-18T19:34:44.452Z,74.41
2019-01-18T19:38:05.843Z,73.87
2019-01-18T19:41:05.832Z,73.72
2019-01-18T19:44:39.996Z,73.40
2019-01-18T19:47:39.485Z,73.72
2019-01-18T19:50:43.308Z,74.06
2019-01-18T19:53:39.501Z,73.85
2019-01-18T19:56:42.075Z,74.25
2019-01-18T19:59:43.572Z,73.85
2019-01-18T20:03:02.220Z,73.91
2019-01-18T20:05:56.020Z,73.74
2019-01-18T20:08:39.981Z,74.04
2019-01-18T20:11:44.895Z,74.10
2019-01-18T20:15:04.841Z,73.80
2019-01-18T20:18:23.026Z,74.31
2019-01-18T20:21:08.369Z,73.93
2019-01-18T20:24:07.363Z,74.23
2019-01-18T20:27:06.489Z,74.32
2019-01-18T20:30:23.618Z,74.90
2019-01-18T20:33:27.827Z,75.21
2019-01-18T20:36:31.745Z,75.51
2019-01-18T20:39:41.640Z,76.14
2019-01-18T20:42:48.129Z,76.73
2019-01-18T20:45:46.414Z,77.01
2019-01-18T20:48:44.393Z,77.17
2019-01-18T20:51:57.678Z,77.02
2019-01-18T20:55:22.488Z,76.98
2019-01-18T20:58:30.417Z,77.34
2019-01-18T21:01:48.071Z,77.28
2019-01-18T21:04:53.450Z,77.12
2019-01-18T21:08:12.503Z,76.85
2019-01-18T21:11:27.865Z,76.28
2019-01-18T21:14:44.994Z,76.21
2019-01-18T21:17:47.293Z,76.01
2019-01-18T21:20:59.400Z,76.05
2019-01-18T21:24:11.432Z,75.87
2019-01-18T21:27:30.304Z,75.94
2019-01-18T21:30:30.166Z,75.87
2019-01-18T21:34:04.747Z,75.83
2019-01-18T21:37:33.800Z,76.33
2019-01-18T21:40:43.071Z,76.40
2019-01-18T21:44:11.011Z,77.07
2019-01-18T21:47:06.081Z,77.13
2019-01-18T21:50:12.071Z,77.60
2019-01-18T21:53:18.367Z,78.26
2019-01-18T21:56:25.979Z,78.84
2019-01-18T21:59:27.903Z,79.59
2019-01-18T22:03:02.497Z,80.09
2019-01-18T22:06:10.426Z,80.49
2019-01-18T22:09:20.417Z,81.07
2019-01-18T22:12:44.701Z,81.27
2019-01-18T22:16:00.836Z,81.65
2019-01-18T22:18:57.558Z,82.00
2019-01-18T22:22:01.348Z,82.25
2019-01-18T22:25:12.260Z,82.38
2019-01-18T22:28:28.768Z,82.44
2019-01-18T22:31:39.498Z,82.57
2019-01-18T22:34:24.991Z,82.52
2019-01-18T22:37:27.560Z,82.76
2019-01-18T22:40:48.177Z,82.73
2019-01-18T22:43:54.171Z,82.48
2019-01-18T22:47:19.187Z,82.46
2019-01-18T22:50:19.283Z,82.35
2019-01-18T22:53:27.140Z,82.32
2019-01-18T22:56:39.547Z,82.14
2019-01-18T22:59:48.311Z,82.15
2019-01-18T23:02:38.547Z,81.95
2019-01-18T23:05:45.765Z,81.79
2019-01-18T23:09:02.269Z,81.50
2019-01-18T23:12:13.301Z,81.51
2019-01-18T23:15:34.601Z,81.58
2019-01-18T23:18:20.141Z,81.53
2019-01-18T23:21:15.254Z,80.93
2019-01-18T23:24:22.193Z,79.42
2019-01-18T23:27:38.338Z,79.01
2019-01-18T23:30:29.153Z,79.23
2019-01-18T23:33:45.595Z,79.22
2019-01-18T23:36:39.906Z,79.25
2019-01-18T23:39:36.768Z,79.55
2019-01-18T23:42:35.568Z,79.52
2019-01-18T23:45:58.408Z,79.40
2019-01-18T23:49:13.765Z,79.80
2019-01-18T23:52:44.781Z,79.96
2019-01-18T23:55:50.046Z,79.88
2019-01-18T23:59:00.674Z,80.04
